Time;durP1;ratioP1;P1;durP2;ratioP2;P2;SDS_P1;SDS_P2;PMS_P1;PMS_P2;Temp;Humidity;BMP_temperature;BMP_pressure;BME280_temperature;BME280_humidity;BME280_pressure;Samples;Min_cycle;Max_cycle;Signal;HPM_P1;HPM_P2
2021/12/22 00:02:59;;;;;;;32.03;29.17;;;;;;;2.37;77.75;102441.13;10462942;28;20227;-80
2021/12/22 00:08:02;;;;;;;32.53;29.77;;;;;;;2.36;77.71;102431.47;10466746;28;20211;-80
2021/12/22 00:13:05;;;;;;;32.40;29.50;;;;;;;2.14;77.91;102386.91;10468041;28;20721;-81
2021/12/22 00:18:07;;;;;;;31.77;29.07;;;;;;;2.33;78.14;102416.53;10458803;28;20208;-80
2021/12/22 00:23:10;;;;;;;34.33;31.10;;;;;;;2.18;78.13;102395.63;10472036;28;20215;-80
2021/12/22 00:28:12;;;;;;;33.57;30.63;;;;;;;2.29;77.97;102410.44;10464392;28;20760;-80
2021/12/22 00:33:14;;;;;;;33.77;30.70;;;;;;;2.27;77.66;102414.00;10463295;28;20239;-80
2021/12/22 00:38:19;;;;;;;32.67;29.70;;;;;;;2.26;78.14;102399.06;10460905;28;20211;-80
2021/12/22 00:43:20;;;;;;;33.70;30.53;;;;;;;2.23;77.86;102394.69;10464677;28;20215;-80
2021/12/22 00:48:23;;;;;;;33.43;30.40;;;;;;;2.18;77.58;102391.22;10469725;28;20574;-80
2021/12/22 00:53:26;;;;;;;32.47;29.73;;;;;;;1.54;77.68;102300.63;10469493;28;20558;-80
2021/12/22 00:58:28;;;;;;;32.67;29.70;;;;;;;2.19;78.03;102410.59;10464166;28;20732;-80
2021/12/22 01:03:30;;;;;;;32.83;29.80;;;;;;;2.18;78.07;102407.03;10464501;28;20230;-80
2021/12/22 01:08:33;;;;;;;33.33;30.13;;;;;;;2.17;78.07;102407.97;10467588;28;20222;-80
2021/12/22 01:13:35;;;;;;;33.33;30.37;;;;;;;2.17;77.84;102430.78;10463038;28;20222;-80
2021/12/22 01:18:37;;;;;;;33.23;30.17;;;;;;;2.08;77.94;102415.97;10469404;28;20225;-80
2021/12/22 01:23:58;;;;;;;33.33;30.30;;;;;;;2.13;77.66;102427.34;10466617;28;20222;-80
2021/12/22 01:29:00;;;;;;;34.10;30.83;;;;;;;2.10;77.80;102420.31;10465969;28;20215;-80
2021/12/22 01:34:02;;;;;;;34.10;30.77;;;;;;;2.06;77.65;102420.38;10473526;28;20235;-80
2021/12/22 01:39:05;;;;;;;34.33;30.97;;;;;;;2.02;77.77;102416.91;10474686;28;20222;-80
2021/12/22 01:44:09;;;;;;;33.10;30.10;;;;;;;2.00;78.06;102415.16;10473827;28;20621;-80
2021/12/22 01:49:14;;;;;;;34.90;31.77;;;;;;;1.98;77.64;102423.09;10472097;28;20211;-80
2021/12/22 01:54:30;;;;;;;34.97;31.60;;;;;;;1.92;77.47;102409.97;10475923;28;20210;-80
2021/12/22 01:59:32;;;;;;;34.70;31.43;;;;;;;1.90;78.04;102406.47;10476633;28;20702;-80
2021/12/22 02:04:35;;;;;;;34.80;31.53;;;;;;;1.88;78.11;102400.34;10473787;28;20238;-79
2021/12/22 02:14:54;;;;;;;35.63;32.43;;;;;;;1.68;78.31;102375.09;10468695;28;20785;-80
2021/12/22 02:19:57;;;;;;;35.40;32.10;;;;;;;1.24;78.09;102299.16;10476637;28;20214;-80
2021/12/22 02:25:04;;;;;;;35.77;32.53;;;;;;;1.52;78.27;102355.91;10476915;28;20211;-80
2021/12/22 02:30:14;;;;;;;36.77;32.93;;;;;;;1.71;78.17;102404.03;10476695;28;20238;-79
2021/12/22 02:35:25;;;;;;;35.27;32.23;;;;;;;1.68;78.62;102411.97;10476825;28;20230;-79
2021/12/22 02:40:27;;;;;;;36.50;32.87;;;;;;;1.36;78.24;102362.22;10475077;28;20207;-80
2021/12/22 02:45:29;;;;;;;35.07;31.83;;;;;;;1.66;78.03;102433.94;10467414;28;20208;-80
2021/12/22 02:50:36;;;;;;;35.17;32.07;;;;;;;1.20;78.51;102364.09;10473370;28;20222;-80
2021/12/22 02:55:46;;;;;;;36.33;32.67;;;;;;;1.58;78.48;102426.06;10469800;28;20199;-79
2021/12/22 03:01:04;;;;;;;36.63;32.93;;;;;;;1.56;78.33;102427.84;10470383;28;20261;-80
2021/12/22 03:06:10;;;;;;;37.47;33.60;;;;;;;1.40;78.82;102408.69;10474738;28;20210;-80
2021/12/22 03:11:12;;;;;;;36.83;33.20;;;;;;;0.22;78.37;102214.94;10472237;28;20223;-80
2021/12/22 03:16:13;;;;;;;36.27;32.90;;;;;;;1.32;78.26;102384.19;10479519;28;20208;-82
2021/12/22 03:21:20;;;;;;;36.27;32.97;;;;;;;1.46;78.96;102411.25;10482395;28;20771;-82
2021/12/22 03:26:24;;;;;;;36.90;33.27;;;;;;;1.44;78.69;102420.06;10472373;28;20261;-82
2021/12/22 03:31:25;;;;;;;36.40;32.87;;;;;;;1.42;78.97;102409.53;10480247;28;20237;-83
2021/12/22 03:36:29;;;;;;;36.30;32.63;;;;;;;1.42;79.06;102403.41;10486210;28;20804;-82
2021/12/22 03:41:30;;;;;;;36.17;32.57;;;;;;;1.41;79.19;102405.16;10479077;28;20254;-83
2021/12/22 03:46:33;;;;;;;35.20;31.77;;;;;;;1.39;79.01;102400.78;10480734;28;20207;-82
2021/12/22 03:51:36;;;;;;;36.23;32.83;;;;;;;1.39;79.65;102395.53;10479834;28;20236;-82
2021/12/22 03:56:38;;;;;;;35.90;32.27;;;;;;;1.36;79.14;102383.28;10474470;28;20868;-82
2021/12/22 04:01:40;;;;;;;802.47;236.20;;;;;;;0.68;79.33;102280.31;10481240;28;20223;-82
2021/12/22 04:06:45;;;;;;;34.97;31.60;;;;;;;0.96;79.15;102329.22;10480925;28;20240;-82
2021/12/22 04:11:47;;;;;;;34.27;31.07;;;;;;;1.28;79.51;102372.81;10479680;28;20235;-83
2021/12/22 04:16:49;;;;;;;34.87;31.47;;;;;;;1.28;79.73;102367.56;10482101;28;20614;-82
2021/12/22 04:21:52;;;;;;;34.63;31.27;;;;;;;0.74;79.26;102288.19;10484441;28;20219;-84
2021/12/22 04:26:53;;;;;;;34.93;31.43;;;;;;;0.90;79.70;102305.56;10478640;28;20219;-82
2021/12/22 04:31:55;;;;;;;34.80;31.47;;;;;;;1.22;79.98;102353.56;10486190;28;20231;-82
2021/12/22 04:36:58;;;;;;;35.60;31.90;;;;;;;1.22;80.16;102346.53;10477842;28;20214;-82
2021/12/22 04:42:00;;;;;;;35.07;31.87;;;;;;;1.21;79.87;102346.56;10479224;28;20633;-82
2021/12/22 04:47:02;;;;;;;35.40;32.33;;;;;;;1.19;79.94;102341.31;10481579;28;20276;-82
2021/12/22 04:52:08;;;;;;;35.00;31.73;;;;;;;1.15;79.91;102345.72;10484129;28;20244;-82
2021/12/22 04:57:10;;;;;;;32.93;30.13;;;;;;;1.13;80.25;102344.88;10486010;28;20247;-83
2021/12/22 05:02:11;;;;;;;35.23;31.77;;;;;;;0.69;80.12;102268.91;10486386;28;20226;-82
2021/12/22 05:07:14;;;;;;;33.37;30.47;;;;;;;0.86;80.15;102297.72;10487884;28;20622;-82
2021/12/22 05:12:16;;;;;;;34.33;30.97;;;;;;;1.12;80.28;102334.34;10495075;28;20232;-82
2021/12/22 05:17:22;;;;;;;35.10;31.90;;;;;;;0.88;80.20;102298.59;10493728;28;20229;-83
2021/12/22 05:22:25;;;;;;;35.20;31.60;;;;;;;1.10;80.39;102330.84;10489891;28;20203;-82
2021/12/22 05:27:27;;;;;;;34.33;31.03;;;;;;;0.76;80.55;102278.50;10490295;28;20269;-82
2021/12/22 05:32:31;;;;;;;35.40;32.03;;;;;;;1.07;80.33;102344.03;10487032;28;20234;-82
2021/12/22 05:37:34;;;;;;;32.80;29.90;;;;;;;0.01;80.71;102151.16;10497710;28;20297;-82
2021/12/22 05:42:37;;;;;;;33.83;30.83;;;;;;;1.06;80.71;102331.78;10489181;28;20200;-82
2021/12/22 05:47:38;;;;;;;34.60;31.50;;;;;;;1.06;80.66;102358.94;10492203;28;20219;-82
2021/12/22 05:52:41;;;;;;;33.97;30.73;;;;;;;1.04;80.76;102323.03;10485826;28;20230;-82
2021/12/22 05:57:43;;;;;;;33.33;30.27;;;;;;;0.95;80.89;102314.31;10489899;28;20211;-82
2021/12/22 06:02:45;;;;;;;33.43;30.30;;;;;;;-0.40;80.27;102110.25;10490643;28;21645;-82
2021/12/22 06:07:48;;;;;;;33.67;30.33;;;;;;;0.84;80.81;102341.56;10490379;28;20219;-83
2021/12/22 06:12:49;;;;;;;34.53;31.03;;;;;;;0.95;80.53;102322.19;10488578;28;20229;-82
2021/12/22 06:17:55;;;;;;;32.80;29.60;;;;;;;0.95;80.79;102324.81;10488049;28;20216;-82
2021/12/22 06:22:59;;;;;;;34.20;30.77;;;;;;;0.93;80.64;102325.72;10491558;28;20229;-82
2021/12/22 06:28:00;;;;;;;32.67;29.70;;;;;;;0.91;80.68;102338.03;10493501;28;20210;-82
2021/12/22 06:33:02;;;;;;;33.07;30.00;;;;;;;0.89;80.86;102316.97;10492099;28;20839;-83
2021/12/22 06:38:05;;;;;;;35.20;31.80;;;;;;;0.39;80.80;102229.69;10496358;28;20213;-82
2021/12/22 06:43:07;;;;;;;33.00;30.10;;;;;;;0.67;80.83;102281.22;10484634;28;21425;-83
2021/12/22 06:48:09;;;;;;;32.80;29.97;;;;;;;0.88;80.86;102328.38;10485500;28;20622;-83
2021/12/22 06:53:12;;;;;;;33.63;30.60;;;;;;;0.62;80.71;102291.75;10495065;28;20222;-82
2021/12/22 06:58:14;;;;;;;32.77;29.63;;;;;;;0.47;80.78;102271.72;10490599;28;20191;-82
2021/12/22 07:03:16;;;;;;;32.43;29.37;;;;;;;0.48;80.69;102283.09;10496093;28;20238;-82
2021/12/22 07:08:19;;;;;;;31.30;28.60;;;;;;;0.24;80.86;102239.44;10497461;28;20844;-82
2021/12/22 07:13:21;;;;;;;31.97;29.27;;;;;;;0.78;80.91;102324.94;10494641;28;20672;-82
2021/12/22 07:18:23;;;;;;;31.57;28.73;;;;;;;0.73;80.73;102331.97;10493590;28;20214;-82
2021/12/22 07:23:26;;;;;;;31.53;28.30;;;;;;;0.73;80.91;102325.84;10488290;28;20210;-83
2021/12/22 07:28:27;;;;;;;1999.90;999.90;;;;;;;0.65;80.87;102304.88;10489079;28;20203;-82
2021/12/22 07:33:29;;;;;;;31.43;28.63;;;;;;;0.50;81.27;102274.31;10487499;28;20230;-82
2021/12/22 07:38:44;;;;;;;32.63;29.53;;;;;;;0.44;81.38;102253.31;10498191;28;20241;-83
2021/12/22 07:43:46;;;;;;;785.30;200.47;;;;;;;0.37;81.24;102251.63;10494247;28;20223;-82
2021/12/22 07:48:47;;;;;;;1250.00;550.77;;;;;;;0.46;81.07;102271.72;10487917;28;20218;-83
2021/12/22 07:53:50;;;;;;;1999.90;999.90;;;;;;;0.37;81.37;102264.75;10483882;28;20222;-82
2021/12/22 07:58:54;;;;;;;796.00;221.70;;;;;;;0.64;80.83;102321.53;10484953;28;20227;-82
2021/12/22 08:03:55;;;;;;;32.07;29.20;;;;;;;0.22;81.55;102247.31;10483244;28;20773;-82
2021/12/22 08:08:59;;;;;;;31.00;28.27;;;;;;;0.41;81.12;102282.25;10487457;28;20393;-82
2021/12/22 08:14:00;;;;;;;31.23;28.73;;;;;;;0.66;81.51;102329.41;10483925;28;20708;-81
2021/12/22 08:19:02;;;;;;;30.93;28.07;;;;;;;0.68;81.46;102325.00;10484992;28;20559;-82
2021/12/22 08:24:06;;;;;;;30.50;27.87;;;;;;;0.70;81.46;102329.38;10483085;28;20210;-82
2021/12/22 08:29:08;;;;;;;29.50;27.07;;;;;;;0.71;81.63;102320.59;10480198;28;20201;-81
2021/12/22 08:34:10;;;;;;;29.73;27.03;;;;;;;0.74;81.62;102306.56;10482650;28;20226;-83
2021/12/22 08:39:14;;;;;;;30.60;28.07;;;;;;;-0.01;81.42;102177.41;10480569;28;20259;-82
2021/12/22 08:44:18;;;;;;;31.63;28.97;;;;;;;0.80;81.58;102306.53;10470819;28;20247;-82
2021/12/22 08:49:21;;;;;;;29.87;27.03;;;;;;;0.83;81.58;102314.41;10478099;28;20302;-83
2021/12/22 08:54:25;;;;;;;30.90;28.17;;;;;;;0.48;81.72;102241.91;10472155;28;20218;-82
2021/12/22 08:59:27;;;;;;;29.17;26.93;;;;;;;0.93;82.07;102302.91;10474795;28;20211;-82
2021/12/22 09:04:30;;;;;;;30.57;27.97;;;;;;;0.97;81.79;102302.00;10477104;28;20234;-82
2021/12/22 09:09:33;;;;;;;30.20;27.47;;;;;;;0.88;82.42;102270.50;10475680;28;20746;-82
2021/12/22 09:14:35;;;;;;;30.27;27.97;;;;;;;0.78;82.33;102239.94;10474409;28;20603;-83
2021/12/22 09:19:37;;;;;;;29.97;27.50;;;;;;;1.12;82.01;102300.16;10466481;28;20231;-81
2021/12/22 09:24:40;;;;;;;31.30;28.53;;;;;;;-0.49;82.05;102002.72;10467566;28;20666;-81
2021/12/22 09:29:42;;;;;;;28.70;26.20;;;;;;;1.16;82.28;102279.03;10461290;28;20211;-80
2021/12/22 09:34:45;;;;;;;30.50;28.03;;;;;;;1.23;82.14;102274.59;10457209;28;20234;-80
2021/12/22 09:39:49;;;;;;;31.03;28.20;;;;;;;0.99;81.66;102238.88;10461534;28;20211;-81
2021/12/22 09:44:52;;;;;;;31.17;28.47;;;;;;;1.48;81.73;102300.69;10457895;28;20214;-81
2021/12/22 09:50:07;;;;;;;32.77;29.77;;;;;;;1.58;81.86;102306.72;10464187;28;20247;-80
2021/12/22 09:55:10;;;;;;;32.10;29.60;;;;;;;1.70;82.53;102298.72;10462627;28;20569;-80
2021/12/22 10:00:13;;;;;;;31.17;28.47;;;;;;;1.43;82.47;102236.69;10461156;28;20252;-80
2021/12/22 10:05:14;;;;;;;31.10;28.53;;;;;;;1.60;82.52;102239.13;10475537;28;20804;-80
2021/12/22 10:10:18;;;;;;;29.83;27.10;;;;;;;2.03;82.16;102293.91;10473814;28;20206;-81
2021/12/22 10:15:19;;;;;;;29.53;26.97;;;;;;;1.74;81.57;102237.22;10471350;28;20238;-81
2021/12/22 10:20:21;;;;;;;29.27;26.57;;;;;;;2.12;81.81;102285.91;10478267;28;20224;-81
2021/12/22 10:25:29;;;;;;;30.23;27.70;;;;;;;2.18;81.42;102287.59;10471834;28;20662;-81
2021/12/22 10:30:33;;;;;;;28.67;26.03;;;;;;;2.30;81.52;102292.72;10469160;28;20235;-81
2021/12/22 10:35:38;;;;;;;974.60;325.67;;;;;;;2.44;81.53;102279.31;10476120;28;20327;-82
2021/12/22 10:40:43;;;;;;;1999.90;981.00;;;;;;;1.71;81.41;102142.44;10475603;28;20274;-82
2021/12/22 10:45:50;;;;;;;24.93;22.83;;;;;;;2.57;80.27;102275.59;10471757;28;20200;-81
2021/12/22 10:50:58;;;;;;;25.53;23.43;;;;;;;2.46;79.75;102252.03;10484786;28;20212;-81
2021/12/22 10:56:02;;;;;;;764.33;270.23;;;;;;;2.40;79.95;102224.91;10483489;28;20571;-81
2021/12/22 11:06:32;;;;;;;822.97;219.60;;;;;;;2.75;78.60;102268.28;10475870;28;20217;-81
2021/12/22 11:11:37;;;;;;;411.90;159.37;;;;;;;2.37;78.55;102185.38;10473283;28;20231;-80
2021/12/22 11:16:54;;;;;;;23.33;21.80;;;;;;;2.73;78.39;102219.09;10472028;28;20218;-80
2021/12/22 11:22:02;;;;;;;23.97;22.13;;;;;;;2.96;78.23;102235.41;10472026;28;20207;-80
2021/12/22 11:27:06;;;;;;;23.73;21.93;;;;;;;2.61;76.90;102163.91;10474083;28;20731;-80
2021/12/22 11:32:10;;;;;;;22.70;21.20;;;;;;;2.98;76.76;102223.09;10470740;28;20243;-80
2021/12/22 11:37:12;;;;;;;23.07;21.53;;;;;;;2.23;77.17;102065.22;10471303;28;20216;-80
2021/12/22 11:42:15;;;;;;;23.57;21.87;;;;;;;1.06;76.15;101839.84;10464806;28;20226;-79
2021/12/22 11:47:17;;;;;;;22.70;21.03;;;;;;;3.36;76.04;102209.16;10466443;28;20203;-80
2021/12/22 11:52:33;;;;;;;23.23;21.63;;;;;;;3.51;76.43;102213.28;10470177;28;20224;-79
2021/12/22 11:57:36;;;;;;;24.03;22.20;;;;;;;2.52;76.96;101988.25;10478074;28;20212;-80
2021/12/22 12:02:42;;;;;;;22.93;21.33;;;;;;;4.09;77.48;102198.81;10477504;28;20237;-81
2021/12/22 12:07:47;;;;;;;22.93;21.30;;;;;;;4.45;78.15;102193.59;10485452;28;20237;-80
2021/12/22 12:12:56;;;;;;;22.63;21.17;;;;;;;4.74;76.92;102188.47;10490089;28;20303;-80
2021/12/22 12:23:35;;;;;;;23.37;21.63;;;;;;;4.82;72.50;102170.63;10486120;28;20210;-80
2021/12/22 12:28:49;;;;;;;22.23;20.20;;;;;;;4.41;71.40;102115.22;10482383;28;20209;-80
2021/12/22 12:33:50;;;;;;;22.80;21.30;;;;;;;4.51;71.58;102150.25;10471901;28;20256;-80
2021/12/22 12:38:55;;;;;;;22.03;20.33;;;;;;;4.01;71.14;102049.22;10474751;28;20210;-80
2021/12/22 12:44:10;;;;;;;20.90;19.50;;;;;;;4.72;71.33;102153.25;10473164;28;20623;-80
2021/12/22 12:49:37;;;;;;;22.13;20.73;;;;;;;4.75;70.91;102138.16;10471222;28;20292;-80
2021/12/22 12:54:46;;;;;;;22.50;20.87;;;;;;;4.31;71.19;102052.00;10469536;28;20233;-81
2021/12/22 12:59:55;;;;;;;22.67;20.90;;;;;;;4.65;70.65;102096.97;10466618;28;20223;-80
2021/12/22 13:04:59;;;;;;;22.80;21.40;;;;;;;4.36;69.12;102050.13;10467244;28;20310;-80
2021/12/22 13:10:11;;;;;;;23.00;21.40;;;;;;;3.36;69.27;101883.53;10464373;28;20211;-81
2021/12/22 13:20:38;;;;;;;22.47;20.97;;;;;;;3.95;68.93;101988.59;10463453;28;20206;-80
2021/12/22 13:25:41;;;;;;;22.57;20.97;;;;;;;4.57;69.07;102089.22;10460237;28;20257;-81
2021/12/22 13:30:46;;;;;;;22.60;21.10;;;;;;;3.81;68.65;101947.53;10467038;28;20742;-80
2021/12/22 13:35:50;;;;;;;22.27;20.87;;;;;;;4.59;68.93;102060.09;10472643;28;20606;-80
2021/12/22 13:40:54;;;;;;;22.63;21.13;;;;;;;4.54;68.21;102054.03;10472612;28;20207;-80
2021/12/22 13:46:11;;;;;;;23.73;21.90;;;;;;;4.40;68.68;102018.25;10464651;28;20215;-79
2021/12/22 13:51:15;;;;;;;23.20;21.60;;;;;;;4.50;67.92;102032.09;10467714;28;20206;-79
2021/12/22 13:56:17;;;;;;;24.20;22.30;;;;;;;4.15;67.83;101974.88;10471419;28;20222;-79
2021/12/22 14:01:29;;;;;;;23.70;21.93;;;;;;;4.21;67.93;101986.13;10464694;28;20384;-80
2021/12/22 14:06:33;;;;;;;22.67;21.10;;;;;;;4.35;68.11;102008.69;10471788;28;20658;-80
2021/12/22 14:11:38;;;;;;;24.17;22.13;;;;;;;4.35;68.77;101999.00;10470946;28;20203;-79
2021/12/22 14:16:41;;;;;;;24.53;22.70;;;;;;;4.35;68.63;101996.38;10470060;28;20206;-79
2021/12/22 14:21:42;;;;;;;24.97;22.80;;;;;;;3.49;68.36;101877.03;10470298;28;20214;-80
2021/12/22 14:26:48;;;;;;;25.50;23.60;;;;;;;3.77;68.80;101908.00;10467320;28;20758;-79
2021/12/22 14:32:01;;;;;;;25.77;23.67;;;;;;;4.04;68.27;101962.78;10465705;28;20253;-80
2021/12/22 14:37:03;;;;;;;24.43;22.63;;;;;;;3.69;69.29;101929.34;10473865;28;20758;-79
2021/12/22 14:42:22;;;;;;;24.90;23.10;;;;;;;4.07;69.22;101988.28;10473129;28;20208;-80
2021/12/22 14:47:25;;;;;;;23.67;22.07;;;;;;;3.80;68.01;101952.84;10465072;28;20198;-81
2021/12/22 14:52:27;;;;;;;24.17;22.23;;;;;;;3.68;68.56;101931.13;10476819;28;20225;-81
2021/12/22 14:57:32;;;;;;;22.50;21.10;;;;;;;3.89;67.96;101964.06;10472612;28;20207;-81
2021/12/22 15:02:35;;;;;;;23.33;21.63;;;;;;;3.82;67.86;101949.25;10467072;28;20223;-80
2021/12/22 15:07:37;;;;;;;23.40;21.63;;;;;;;3.46;68.42;101896.44;10471448;28;20202;-81
2021/12/22 15:12:38;;;;;;;23.50;21.67;;;;;;;3.49;68.41;101909.59;10469203;28;20223;-80
2021/12/22 15:17:41;;;;;;;23.57;21.67;;;;;;;3.66;69.12;101953.22;10462133;28;20203;-79
2021/12/22 15:22:43;;;;;;;24.10;22.37;;;;;;;3.35;69.25;101908.19;10470452;28;20202;-79
2021/12/22 15:27:46;;;;;;;24.13;22.57;;;;;;;3.56;69.53;101935.84;10472115;28;20693;-80
2021/12/22 15:32:49;;;;;;;25.17;23.43;;;;;;;3.52;69.14;101929.75;10466450;28;20278;-79
2021/12/22 15:37:52;;;;;;;24.40;22.70;;;;;;;3.21;69.69;101885.63;10466765;28;20211;-79
2021/12/22 15:42:53;;;;;;;26.13;24.23;;;;;;;3.17;69.75;101875.19;10462668;28;20219;-79
2021/12/22 15:47:57;;;;;;;25.37;23.50;;;;;;;3.12;69.68;101880.56;10457818;28;20215;-79
2021/12/22 15:52:59;;;;;;;24.13;22.43;;;;;;;3.34;69.98;101896.75;10463626;28;20281;-79
2021/12/22 15:58:02;;;;;;;24.77;23.00;;;;;;;3.12;69.35;101873.50;10463954;28;20214;-80
2021/12/22 16:03:05;;;;;;;23.80;22.30;;;;;;;2.95;70.01;101851.94;10462127;28;20229;-80
2021/12/22 16:08:07;;;;;;;24.67;22.57;;;;;;;3.17;70.07;101902.44;10466994;28;20214;-80
2021/12/22 16:13:08;;;;;;;23.80;22.10;;;;;;;3.07;70.58;101891.25;10465369;28;20227;-80
2021/12/22 16:18:13;;;;;;;24.83;22.90;;;;;;;3.15;70.17;101900.75;10457637;28;20213;-79
2021/12/22 16:23:14;;;;;;;24.87;23.07;;;;;;;2.44;70.18;101779.25;10466917;28;20199;-79
2021/12/22 16:28:16;;;;;;;24.03;22.37;;;;;;;3.06;70.54;101889.50;10460055;28;20211;-79
2021/12/22 16:33:19;;;;;;;23.90;22.00;;;;;;;3.04;70.38;101904.50;10455341;28;21200;-79
2021/12/22 16:38:21;;;;;;;24.60;22.90;;;;;;;3.01;70.18;101878.16;10459453;28;20203;-78
2021/12/22 16:43:22;;;;;;;25.10;23.20;;;;;;;2.95;70.80;101880.09;10455901;28;20200;-78
2021/12/22 16:48:25;;;;;;;26.27;24.27;;;;;;;2.69;70.94;101827.03;10453751;28;20202;-79
2021/12/22 16:53:27;;;;;;;23.57;22.00;;;;;;;2.95;70.52;101877.47;10456930;28;20832;-79
2021/12/22 16:58:29;;;;;;;24.20;22.50;;;;;;;2.95;70.89;101888.88;10456693;28;20207;-79
2021/12/22 17:03:32;;;;;;;23.53;21.83;;;;;;;2.95;70.62;101893.28;10458472;28;20223;-78
2021/12/22 17:08:39;;;;;;;23.43;21.63;;;;;;;2.92;70.96;101881.03;10464089;28;20542;-77
2021/12/22 17:13:42;;;;;;;23.23;21.70;;;;;;;2.49;70.63;101800.25;10478028;28;20250;-78
2021/12/22 17:18:45;;;;;;;24.03;22.20;;;;;;;2.20;70.25;101777.16;10480200;28;20220;-80
2021/12/22 17:23:47;;;;;;;22.70;21.20;;;;;;;2.56;70.73;101835.25;10485276;28;20203;-83
2021/12/22 17:28:49;;;;;;;24.40;22.73;;;;;;;2.66;70.65;101842.94;10476204;28;20234;-81
2021/12/22 17:33:52;;;;;;;23.30;21.83;;;;;;;2.87;70.68;101872.34;10478712;28;20238;-81
2021/12/22 17:38:53;;;;;;;23.73;22.00;;;;;;;2.86;70.33;101858.31;10475604;28;20203;-82
2021/12/22 17:43:55;;;;;;;23.27;21.57;;;;;;;2.48;70.35;101787.97;10478048;28;20203;-81
2021/12/22 17:48:58;;;;;;;27.13;25.03;;;;;;;2.83;70.12;101850.47;10472779;28;20203;-81
2021/12/22 17:54:00;;;;;;;25.17;23.43;;;;;;;2.81;70.85;101848.75;10477607;28;20222;-81
2021/12/22 17:59:05;;;;;;;25.27;23.37;;;;;;;2.81;70.56;101856.69;10474625;28;20214;-82
2021/12/22 18:04:08;;;;;;;26.50;24.60;;;;;;;2.77;70.70;101853.25;10471487;28;20237;-81
2021/12/22 18:09:10;;;;;;;26.53;24.77;;;;;;;2.43;71.43;101796.00;10477654;28;20294;-82
2021/12/22 18:14:16;;;;;;;26.10;24.00;;;;;;;2.51;71.55;101799.31;10469424;28;20648;-82
2021/12/22 18:19:21;;;;;;;28.27;25.77;;;;;;;2.57;71.72;101806.22;10466183;28;20749;-81
2021/12/22 18:24:23;;;;;;;28.17;26.13;;;;;;;2.25;71.42;101754.22;10467695;28;20687;-82
2021/12/22 18:29:25;;;;;;;27.73;25.83;;;;;;;2.09;71.75;101712.41;10460050;28;20203;-82
2021/12/22 18:34:31;;;;;;;27.77;25.33;;;;;;;2.55;71.98;101791.34;10467631;28;20530;-82
2021/12/22 18:39:33;;;;;;;30.30;27.90;;;;;;;2.54;72.58;101785.19;10470551;28;20238;-82
2021/12/22 18:44:35;;;;;;;27.30;25.27;;;;;;;2.51;72.33;101780.00;10476623;28;20208;-82
2021/12/22 18:49:39;;;;;;;25.83;24.10;;;;;;;1.88;72.77;101671.56;10467626;28;20265;-82
2021/12/22 18:54:45;;;;;;;25.03;23.27;;;;;;;1.34;72.94;101570.06;10473966;28;20223;-82
2021/12/22 18:59:47;;;;;;;25.23;23.33;;;;;;;2.29;73.29;101738.28;10474218;28;20229;-82
2021/12/22 19:04:50;;;;;;;26.07;24.23;;;;;;;2.03;72.70;101695.84;10467900;28;20288;-82
2021/12/22 19:09:52;;;;;;;23.97;22.20;;;;;;;2.27;73.30;101741.88;10469120;28;20206;-82
2021/12/22 19:14:54;;;;;;;26.10;23.87;;;;;;;2.24;73.38;101740.19;10461483;28;20725;-81
2021/12/22 19:19:57;;;;;;;26.57;24.57;;;;;;;1.84;73.51;101677.81;10470628;28;20223;-82
2021/12/22 19:24:58;;;;;;;24.40;22.80;;;;;;;1.66;73.66;101652.75;10460419;28;20230;-82
2021/12/22 19:30:00;;;;;;;26.87;24.63;;;;;;;1.93;73.86;101711.84;10472483;28;20217;-82
2021/12/22 19:35:04;;;;;;;26.83;24.83;;;;;;;2.01;73.88;101730.13;10462809;28;20230;-82
2021/12/22 19:40:11;;;;;;;27.07;25.07;;;;;;;2.19;73.79;101757.84;10463265;28;20207;-82
2021/12/22 19:45:15;;;;;;;26.03;24.23;;;;;;;1.04;74.29;101554.94;10479257;28;20757;-82
2021/12/22 19:50:20;;;;;;;25.50;23.80;;;;;;;2.07;74.10;101727.38;10467850;28;20211;-82
2021/12/22 19:55:22;;;;;;;24.97;22.83;;;;;;;2.24;74.20;101732.28;10465318;28;20222;-81
2021/12/22 20:00:26;;;;;;;24.77;22.97;;;;;;;2.26;74.20;101713.75;10461257;28;20431;-82
2021/12/22 20:05:30;;;;;;;27.43;25.50;;;;;;;2.24;74.28;101727.00;10463738;28;20868;-81
2021/12/22 20:10:32;;;;;;;25.83;23.80;;;;;;;1.98;74.11;101671.38;10454122;28;20215;-81
2021/12/22 20:15:34;;;;;;;24.97;23.23;;;;;;;2.05;74.27;101679.09;10459943;28;20262;-81
2021/12/22 20:20:38;;;;;;;26.70;24.60;;;;;;;2.26;74.49;101716.41;10454588;28;20207;-80
2021/12/22 20:25:40;;;;;;;26.10;24.30;;;;;;;1.94;74.09;101649.50;10454459;28;20211;-80
2021/12/22 20:30:42;;;;;;;26.37;24.57;;;;;;;2.24;74.10;101681.31;10460000;28;20218;-80
2021/12/22 20:35:45;;;;;;;27.63;25.73;;;;;;;2.26;74.17;101672.47;10456803;28;20315;-80
2021/12/22 20:40:46;;;;;;;25.80;24.00;;;;;;;2.04;73.88;101637.00;10452927;28;20219;-79
2021/12/22 20:45:50;;;;;;;27.27;25.37;;;;;;;1.74;73.81;101616.56;10456340;28;20203;-79
2021/12/22 20:50:55;;;;;;;25.57;23.77;;;;;;;2.21;74.23;101686.66;10450119;28;20701;-79
2021/12/22 20:55:56;;;;;;;26.57;24.47;;;;;;;2.04;73.78;101647.53;10453086;28;20231;-80
2021/12/22 21:00:58;;;;;;;26.07;24.23;;;;;;;1.97;74.24;101625.72;10455363;28;20252;-80
2021/12/22 21:06:02;;;;;;;27.00;25.00;;;;;;;2.20;74.54;101648.03;10456429;28;20667;-80
2021/12/22 21:11:09;;;;;;;26.47;24.67;;;;;;;2.18;74.13;101645.44;10462281;28;20840;-80
2021/12/22 21:16:11;;;;;;;26.10;24.20;;;;;;;2.21;74.42;101652.41;10454409;28;20653;-80
2021/12/22 21:21:15;;;;;;;1999.90;999.90;;;;;;;2.18;74.07;101648.06;10452719;28;20200;-80
2021/12/22 21:26:17;;;;;;;1998.67;988.30;;;;;;;1.86;73.92;101597.00;10454552;28;20203;-80
2021/12/22 21:31:18;;;;;;;1999.90;999.90;;;;;;;1.15;74.04;101439.84;10452837;28;20633;-79
2021/12/22 21:36:22;;;;;;;1999.90;999.90;;;;;;;1.75;74.17;101534.06;10452864;28;20251;-79
2021/12/22 21:41:24;;;;;;;1383.40;796.93;;;;;;;1.84;74.24;101529.47;10454712;28;20300;-80
2021/12/22 21:46:25;;;;;;;737.53;192.20;;;;;;;2.01;73.99;101550.13;10455670;28;20919;-80
2021/12/22 21:51:28;;;;;;;1419.70;753.47;;;;;;;1.37;74.40;101440.19;10465135;28;20200;-80
2021/12/22 21:56:30;;;;;;;1999.90;999.90;;;;;;;2.18;74.22;101552.34;10469532;28;20260;-80
2021/12/22 22:01:32;;;;;;;1442.20;774.87;;;;;;;1.64;74.40;101461.47;10467573;28;20234;-79
2021/12/22 22:06:35;;;;;;;1999.90;999.90;;;;;;;1.90;74.50;101508.22;10469294;28;20211;-80
2021/12/22 22:11:37;;;;;;;1999.90;999.90;;;;;;;1.91;74.52;101508.19;10464120;28;20691;-79
2021/12/22 22:16:40;;;;;;;1999.90;999.90;;;;;;;1.73;74.13;101471.78;10462299;28;20219;-80
2021/12/22 22:21:44;;;;;;;1999.90;999.90;;;;;;;1.92;74.30;101498.53;10468151;28;20463;-79
2021/12/22 22:26:47;;;;;;;1999.90;999.90;;;;;;;2.20;74.58;101534.72;10467125;28;20675;-80
2021/12/22 22:31:51;;;;;;;1725.80;920.20;;;;;;;1.93;74.14;101498.50;10464019;28;20243;-80
2021/12/22 22:36:54;;;;;;;27.20;25.20;;;;;;;2.20;74.44;101526.81;10466574;28;20857;-80
2021/12/22 22:41:56;;;;;;;25.97;23.90;;;;;;;1.77;74.72;101433.94;10465344;28;20540;-79
2021/12/22 22:46:58;;;;;;;26.33;24.40;;;;;;;2.18;74.36;101504.91;10461241;28;20283;-79
2021/12/22 22:52:01;;;;;;;27.77;25.60;;;;;;;1.83;74.26;101462.78;10466626;28;20576;-80
2021/12/22 22:57:02;;;;;;;26.93;24.80;;;;;;;1.90;74.56;101456.44;10463720;28;20227;-80
2021/12/22 23:02:04;;;;;;;26.70;24.70;;;;;;;1.67;74.69;101419.28;10460636;28;20222;-79
2021/12/22 23:07:08;;;;;;;27.70;25.63;;;;;;;2.24;74.65;101515.28;10470700;28;20255;-80
2021/12/22 23:12:10;;;;;;;28.00;25.80;;;;;;;2.29;74.56;101498.44;10466816;28;20714;-80
2021/12/22 23:17:11;;;;;;;27.83;25.83;;;;;;;2.14;74.59;101443.53;10465624;28;20227;-80